Богашево

Карта отелей и гостиниц, располагающихся рядом с аэропортом Богашево :

Богашево
Томск
Томская область 56° 22' 59.2788" N, 85° 12' 37.8612" E
Код аэродрома ИКАО: 
UNTT
Код аэродрома RU: 
УНТТ
Координаты: 
N56.38313° E085.21052°
Превышение над уровнем моря : 
182
Основная полоса: 
03L/21R
Курс магнитный: 
024,9/204,9
Длина основной ВПП: 
2500
Ширина основной ВПП: 
50
Покрытие основной ВПП: 
Твёрдое (асфальтобетон)
Тип: 
Аэродром
Освещение ВПП: 
Постоянное
Класс аэродрома: 
Международный
Статус: 
Действующий
Принадлежность: 
ГА
Сайт: 
http://airport.tomsk.ru/
Страна: 
Россия
Регион: 
Томская область
Город: 
Томск
Дополнительная информация: 
Военный индекс: XNTT / ЬНТТ.
Схемы аэропортов: 
Погода: 

Авиационная погода в Богашево

Регион: 
Погода METAR: 
UNTT 110330Z 10003MPS CAVOK 23/14 Q1001 R21/090060 NOSIG RMK QFE736
Время наблюдения: 
2020-08-11T03:30:00Z
Температура C: 
23.0
Точка росы: 
14.0
Направление ветра: 
100
Скорость ветра: 
6
Метеорологическая видимость: 
6.21
Условия полета: 
VFR
Аэропорт подробнее: 

Найти трансфер

С помощью этой формы Вы можете найти трансфер из аэропорта Богашево в город, аэропорт или вокзал:

Карта места

Javascript is required to view this map.

Погода в аэропортах:

Авиационная погода в Могилёве

Регион: 
Погода METAR: 
UMOO 110400Z 31002MPS 4500 BR SCT040 SCT/// 14/14 Q1016 NOSIG
Время наблюдения: 
2020-08-11T04:00:00Z
Температура C: 
14.0
Точка росы: 
14.0
Направление ветра: 
310
Скорость ветра: 
4
Метеорологическая видимость: 
2.8
Явления погоды: 
BR
Условия полета: 
IFR
Аэропорт подробнее: 

Авиационная погода в Батуми

Регион: 
Погода METAR: 
UGSB 110330Z 11008KT 8000 -TSRA SCT012 BKN028CB 21/20 Q1009 R13/////// NOSIG
Время наблюдения: 
2020-08-11T03:30:00Z
Температура C: 
21.0
Точка росы: 
20.0
Направление ветра: 
110
Скорость ветра: 
8
Метеорологическая видимость: 
4.97
Явления погоды: 
-TSRA
Условия полета: 
MVFR

Авиационная погода в аэропорту Новый

Регион: 
Погода METAR: 
UHHH 110330Z 02003MPS 8000 -SHRA BKN040CB 23/21 Q1000 R23L/290045 TEMPO 2000 SHRA RMK QFE744/0992
Время наблюдения: 
2020-08-11T03:30:00Z
Температура C: 
23.0
Точка росы: 
21.0
Направление ветра: 
20
Скорость ветра: 
6
Метеорологическая видимость: 
4.97
Явления погоды: 
-SHRA
Условия полета: 
MVFR
Аэропорт подробнее: 

Авиационная погода в Москве - Остафьево

Регион: 
Погода METAR: 
UUMO 110330Z 31003MPS 9000 -SHRA BKN033CB 17/17 Q1013 R26/090060 NOSIG RMK QFE744/0992
Время наблюдения: 
2020-08-11T03:30:00Z
Температура C: 
17.0
Точка росы: 
17.0
Направление ветра: 
310
Скорость ветра: 
6
Метеорологическая видимость: 
5.59
Явления погоды: 
-SHRA
Условия полета: 
VFR
Аэропорт подробнее: